Time;durP1;ratioP1;P1;durP2;ratioP2;P2;SDS_P1;SDS_P2;PMS_P1;PMS_P2;Temp;Humidity;BMP_temperature;BMP_pressure;BME280_temperature;BME280_humidity;BME280_pressure;Samples;Min_cycle;Max_cycle;Signal;HPM_P1;HPM_P2
2024/01/03 00:01:21;;;;;;;;;;;9.50;99.90;;;;;;5054313;28;19920;-73
2024/01/03 00:03:49;;;;;;;;;;;9.60;99.90;;;;;;5045906;28;20388;-74
2024/01/03 00:06:17;;;;;;;;;;;9.60;99.90;;;;;;5046323;28;19943;-73
2024/01/03 00:08:44;;;;;;;;;;;9.50;99.90;;;;;;5053358;28;19920;-76
2024/01/03 00:11:18;;;;;;;;;;;9.60;99.90;;;;;;5035698;28;19921;-74
2024/01/03 00:14:05;;;;;;;;;;;9.70;99.90;;;;;;5050321;28;19947;-74
2024/01/03 00:16:33;;;;;;;;;;;9.80;99.90;;;;;;5048452;28;19936;-74
2024/01/03 00:19:03;;;;;;;;;;;9.80;99.90;;;;;;5045493;28;19982;-74
2024/01/03 00:21:33;;;;;;;;;;;9.90;99.90;;;;;;5045503;28;19947;-75
2024/01/03 00:24:04;;;;;;;;;;;9.90;99.90;;;;;;5043585;28;19968;-74
2024/01/03 00:26:33;;;;;;;;;;;9.90;99.90;;;;;;5047672;28;19968;-76
2024/01/03 00:29:02;;;;;;;;;;;9.80;99.90;;;;;;5034113;28;19982;-75
2024/01/03 00:31:36;;;;;;;;;;;9.90;99.90;;;;;;5039765;28;19929;-76
2024/01/03 00:34:04;;;;;;;;;;;9.80;99.90;;;;;;5033637;28;19932;-74
2024/01/03 00:36:33;;;;;;;;;;;9.90;99.90;;;;;;5053511;28;19932;-74
2024/01/03 00:39:01;;;;;;;;;;;9.90;99.90;;;;;;5052906;28;19928;-74
2024/01/03 00:41:29;;;;;;;;;;;9.80;99.90;;;;;;5048366;28;19932;-75
2024/01/03 00:43:58;;;;;;;;;;;9.80;99.90;;;;;;5049643;28;19947;-77
2024/01/03 00:46:25;;;;;;;;;;;9.80;99.90;;;;;;5038197;28;20387;-73
2024/01/03 00:48:53;;;;;;;;;;;9.80;99.90;;;;;;5043713;28;19970;-74
2024/01/03 00:51:21;;;;;;;;;;;9.70;99.90;;;;;;5048714;28;19928;-74
2024/01/03 00:53:49;;;;;;;;;;;9.70;99.90;;;;;;5040575;28;19924;-74
2024/01/03 00:56:18;;;;;;;;;;;9.60;99.90;;;;;;5044098;28;19921;-72
2024/01/03 00:58:46;;;;;;;;;;;9.60;99.90;;;;;;5052694;28;19944;-72
2024/01/03 01:01:15;;;;;;;;;;;9.50;99.90;;;;;;5051689;28;19920;-72
2024/01/03 01:03:43;;;;;;;;;;;9.40;99.90;;;;;;5053193;28;19921;-72
2024/01/03 01:06:10;;;;;;;;;;;9.40;99.90;;;;;;5052533;28;19986;-72
2024/01/03 01:08:38;;;;;;;;;;;9.50;99.90;;;;;;5052144;28;19932;-71
2024/01/03 01:11:06;;;;;;;;;;;9.50;99.90;;;;;;5049088;28;19927;-72
2024/01/03 01:13:34;;;;;;;;;;;9.50;99.90;;;;;;5046463;28;19931;-76
2024/01/03 01:16:02;;;;;;;;;;;9.50;99.90;;;;;;5051979;28;20330;-74
2024/01/03 01:18:31;;;;;;;;;;;9.60;99.90;;;;;;5035539;28;20411;-75
2024/01/03 01:20:59;;;;;;;;;;;9.60;99.90;;;;;;5048326;28;20279;-73
2024/01/03 01:23:26;;;;;;;;;;;9.60;99.90;;;;;;5035487;28;20366;-74
2024/01/03 01:25:54;;;;;;;;;;;9.60;99.90;;;;;;5050590;28;20292;-75
2024/01/03 01:28:22;;;;;;;;;;;9.70;99.90;;;;;;5051461;28;20891;-73
2024/01/03 01:30:50;;;;;;;;;;;9.70;99.90;;;;;;5048966;28;20391;-74
2024/01/03 01:33:18;;;;;;;;;;;9.70;99.90;;;;;;5051096;28;19970;-74
2024/01/03 01:35:47;;;;;;;;;;;9.70;99.90;;;;;;5048621;28;19928;-74
2024/01/03 01:38:15;;;;;;;;;;;9.70;99.90;;;;;;5050759;28;19935;-73
2024/01/03 01:40:45;;;;;;;;;;;9.60;99.90;;;;;;5046380;28;19921;-74
2024/01/03 01:43:13;;;;;;;;;;;9.70;99.90;;;;;;5049755;28;19920;-75
2024/01/03 01:45:41;;;;;;;;;;;9.70;99.90;;;;;;5048573;28;19920;-72
2024/01/03 01:48:09;;;;;;;;;;;9.70;99.90;;;;;;5048950;28;19924;-73
2024/01/03 01:50:38;;;;;;;;;;;9.60;99.90;;;;;;5046489;28;20785;-75
2024/01/03 01:53:07;;;;;;;;;;;9.70;99.90;;;;;;5046133;28;20007;-74
2024/01/03 01:55:37;;;;;;;;;;;9.70;99.90;;;;;;5045329;28;20023;-73
2024/01/03 01:58:06;;;;;;;;;;;9.70;99.90;;;;;;5050754;28;19921;-75
2024/01/03 02:00:34;;;;;;;;;;;9.70;99.90;;;;;;5047788;28;19921;-75
2024/01/03 02:03:02;;;;;;;;;;;9.70;99.90;;;;;;5048665;28;20009;-76
2024/01/03 02:05:30;;;;;;;;;;;9.60;99.90;;;;;;5045215;28;19921;-74
2024/01/03 02:07:59;;;;;;;;;;;9.60;99.90;;;;;;5047080;28;20338;-76
2024/01/03 02:10:28;;;;;;;;;;;9.60;99.90;;;;;;5043240;28;19921;-75
2024/01/03 02:12:56;;;;;;;;;;;9.50;99.90;;;;;;5046924;28;20383;-74
2024/01/03 02:15:24;;;;;;;;;;;9.50;99.90;;;;;;5048902;28;19921;-73
2024/01/03 02:17:52;;;;;;;;;;;9.40;99.90;;;;;;5053601;28;19925;-72
2024/01/03 02:20:20;;;;;;;;;;;9.40;99.90;;;;;;5046754;28;20379;-74
2024/01/03 02:22:49;;;;;;;;;;;9.40;99.90;;;;;;5043458;28;19929;-74
2024/01/03 02:25:17;;;;;;;;;;;9.40;99.90;;;;;;5046837;28;19928;-74
2024/01/03 02:27:44;;;;;;;;;;;9.40;99.90;;;;;;5051077;28;20332;-73
2024/01/03 02:30:12;;;;;;;;;;;9.40;99.90;;;;;;5041799;28;19925;-73
2024/01/03 02:32:40;;;;;;;;;;;9.40;99.90;;;;;;5050833;28;19920;-72
2024/01/03 02:35:08;;;;;;;;;;;9.40;99.90;;;;;;5042560;28;19960;-72
2024/01/03 02:37:36;;;;;;;;;;;9.40;99.90;;;;;;5046921;28;19921;-73
2024/01/03 02:40:06;;;;;;;;;;;9.40;99.90;;;;;;5038610;28;19925;-72
2024/01/03 02:42:34;;;;;;;;;;;9.40;99.90;;;;;;5051056;28;19921;-73
2024/01/03 02:45:02;;;;;;;;;;;9.40;99.90;;;;;;5049170;28;19928;-72
2024/01/03 02:47:30;;;;;;;;;;;9.40;99.90;;;;;;5039384;28;20339;-72
2024/01/03 02:49:58;;;;;;;;;;;9.50;99.90;;;;;;5038850;28;19964;-72
2024/01/03 02:52:27;;;;;;;;;;;9.50;99.90;;;;;;5050542;28;19920;-72
2024/01/03 02:54:55;;;;;;;;;;;9.60;99.90;;;;;;5043963;28;19925;-70
2024/01/03 02:57:25;;;;;;;;;;;9.60;99.90;;;;;;5049210;28;19929;-72
2024/01/03 02:59:53;;;;;;;;;;;9.60;99.90;;;;;;5040562;28;20596;-72
2024/01/03 03:02:21;;;;;;;;;;;9.60;99.90;;;;;;5041093;28;20326;-72
2024/01/03 03:04:49;;;;;;;;;;;9.70;99.90;;;;;;5036670;28;19964;-72
2024/01/03 03:07:16;;;;;;;;;;;9.70;99.90;;;;;;5038771;28;19924;-72
2024/01/03 03:09:44;;;;;;;;;;;9.70;99.90;;;;;;5030049;28;20288;-73
2024/01/03 03:12:12;;;;;;;;;;;9.70;99.90;;;;;;5031493;28;20418;-73
2024/01/03 03:14:41;;;;;;;;;;;9.70;99.90;;;;;;5049076;28;19928;-72
2024/01/03 03:17:09;;;;;;;;;;;9.60;99.90;;;;;;5045541;28;19920;-71
2024/01/03 03:19:37;;;;;;;;;;;9.60;99.90;;;;;;5034186;28;20338;-72
2024/01/03 03:22:05;;;;;;;;;;;9.60;99.90;;;;;;5042683;28;20372;-73
2024/01/03 03:24:33;;;;;;;;;;;9.60;99.90;;;;;;5042235;28;19924;-73
2024/01/03 03:27:00;;;;;;;;;;;9.60;99.90;;;;;;5044375;28;20208;-74
2024/01/03 03:29:28;;;;;;;;;;;9.50;99.90;;;;;;5049093;28;20407;-73
2024/01/03 03:31:57;;;;;;;;;;;9.50;99.90;;;;;;5053347;28;19971;-73
2024/01/03 03:34:25;;;;;;;;;;;9.40;99.90;;;;;;5046115;28;19932;-75
2024/01/03 03:36:53;;;;;;;;;;;9.50;99.90;;;;;;5054477;28;19924;-74
2024/01/03 03:39:21;;;;;;;;;;;9.40;99.90;;;;;;5049886;28;19974;-74
2024/01/03 03:41:48;;;;;;;;;;;9.40;99.90;;;;;;5034726;28;19924;-74
2024/01/03 03:44:16;;;;;;;;;;;9.40;99.90;;;;;;5050975;28;19920;-74
2024/01/03 03:46:44;;;;;;;;;;;9.40;99.90;;;;;;5042812;28;20358;-74
2024/01/03 03:49:13;;;;;;;;;;;9.50;99.90;;;;;;5045809;28;19927;-76
2024/01/03 03:51:41;;;;;;;;;;;9.40;99.90;;;;;;5046104;28;20021;-75
2024/01/03 03:54:08;;;;;;;;;;;9.40;99.90;;;;;;5054393;28;19921;-74
2024/01/03 03:56:36;;;;;;;;;;;9.40;99.90;;;;;;5040189;28;19921;-76
2024/01/03 03:59:04;;;;;;;;;;;9.50;99.90;;;;;;5053722;28;19936;-73
2024/01/03 04:01:32;;;;;;;;;;;9.50;99.90;;;;;;5045367;28;20372;-74
2024/01/03 04:03:59;;;;;;;;;;;9.50;99.90;;;;;;5052763;28;19933;-74
2024/01/03 04:06:29;;;;;;;;;;;9.50;99.90;;;;;;5043463;28;19921;-74
2024/01/03 04:08:57;;;;;;;;;;;9.60;99.90;;;;;;5048556;28;20023;-74
2024/01/03 04:11:24;;;;;;;;;;;9.70;99.90;;;;;;5051757;28;19967;-74
2024/01/03 04:13:52;;;;;;;;;;;9.70;99.90;;;;;;5042812;28;19921;-74
2024/01/03 04:16:20;;;;;;;;;;;9.60;99.90;;;;;;5042864;28;20384;-74
2024/01/03 04:18:48;;;;;;;;;;;9.60;99.90;;;;;;5048853;28;19920;-74
2024/01/03 04:21:16;;;;;;;;;;;9.50;99.90;;;;;;5044562;28;19921;-74
2024/01/03 04:23:45;;;;;;;;;;;9.40;99.90;;;;;;5053728;28;19986;-75
2024/01/03 04:26:13;;;;;;;;;;;9.40;99.90;;;;;;5053388;28;20011;-75
2024/01/03 04:28:41;;;;;;;;;;;9.40;99.90;;;;;;5045716;28;19921;-73
2024/01/03 04:31:08;;;;;;;;;;;9.30;99.90;;;;;;5036853;28;19968;-73
2024/01/03 04:33:36;;;;;;;;;;;9.40;99.90;;;;;;5052974;28;20379;-72
2024/01/03 04:36:04;;;;;;;;;;;9.40;99.90;;;;;;5045330;28;20366;-73
2024/01/03 04:38:32;;;;;;;;;;;9.40;99.90;;;;;;5053440;28;20345;-73
2024/01/03 04:41:01;;;;;;;;;;;9.40;99.90;;;;;;5043146;28;20368;-71
2024/01/03 04:43:29;;;;;;;;;;;9.40;99.90;;;;;;5040588;28;19928;-72
2024/01/03 04:45:57;;;;;;;;;;;9.50;99.90;;;;;;5033354;28;19921;-71
2024/01/03 04:48:25;;;;;;;;;;;9.40;99.90;;;;;;5041344;28;19920;-72
2024/01/03 04:50:53;;;;;;;;;;;9.40;99.90;;;;;;5037513;28;20380;-71
2024/01/03 04:53:20;;;;;;;;;;;9.40;99.90;;;;;;5044712;28;19920;-72
2024/01/03 04:55:48;;;;;;;;;;;9.40;99.90;;;;;;5048703;28;20291;-72
2024/01/03 04:58:17;;;;;;;;;;;9.30;99.90;;;;;;5052122;28;20397;-74
2024/01/03 05:00:45;;;;;;;;;;;9.40;99.90;;;;;;5051314;28;20291;-72
2024/01/03 05:03:13;;;;;;;;;;;9.40;99.90;;;;;;5045487;28;20311;-72
2024/01/03 05:05:41;;;;;;;;;;;9.30;99.90;;;;;;5040953;28;19979;-71
2024/01/03 05:08:09;;;;;;;;;;;9.30;99.90;;;;;;5048107;28;20011;-72
2024/01/03 05:10:37;;;;;;;;;;;9.30;99.90;;;;;;5032072;28;19968;-72
2024/01/03 05:13:05;;;;;;;;;;;9.40;99.90;;;;;;5039527;28;20358;-72
2024/01/03 05:15:34;;;;;;;;;;;9.40;99.90;;;;;;5052491;28;19924;-72
2024/01/03 05:18:02;;;;;;;;;;;9.40;99.90;;;;;;5053574;28;19920;-72
2024/01/03 05:20:30;;;;;;;;;;;9.40;99.90;;;;;;5043474;28;19925;-72
2024/01/03 05:22:57;;;;;;;;;;;9.40;99.90;;;;;;5052371;28;19921;-73
2024/01/03 05:25:25;;;;;;;;;;;9.50;99.90;;;;;;5042820;28;19925;-72
2024/01/03 05:27:53;;;;;;;;;;;9.50;99.90;;;;;;5048771;28;19925;-72
2024/01/03 05:30:21;;;;;;;;;;;9.50;99.90;;;;;;5043325;28;20064;-71
2024/01/03 05:32:50;;;;;;;;;;;9.50;99.90;;;;;;5044179;28;19927;-72
2024/01/03 05:35:18;;;;;;;;;;;9.50;99.90;;;;;;5044594;28;20299;-72
2024/01/03 05:37:46;;;;;;;;;;;9.50;99.90;;;;;;5044098;28;19920;-72
2024/01/03 05:40:15;;;;;;;;;;;9.60;99.90;;;;;;5043302;28;20443;-72
2024/01/03 05:42:43;;;;;;;;;;;9.50;99.90;;;;;;5051866;28;19927;-71
2024/01/03 05:45:11;;;;;;;;;;;9.60;99.90;;;;;;5044556;28;19948;-72
2024/01/03 05:47:39;;;;;;;;;;;9.60;99.90;;;;;;5040083;28;19921;-72
2024/01/03 05:50:09;;;;;;;;;;;9.60;99.90;;;;;;5039090;28;19941;-71
2024/01/03 05:52:37;;;;;;;;;;;9.70;99.90;;;;;;5034169;28;20012;-72
2024/01/03 05:55:06;;;;;;;;;;;9.60;99.90;;;;;;5050733;28;19924;-72
2024/01/03 05:57:34;;;;;;;;;;;9.70;99.90;;;;;;5051163;28;19952;-72
2024/01/03 06:00:02;;;;;;;;;;;9.70;99.90;;;;;;5051024;28;20349;-72
2024/01/03 06:02:30;;;;;;;;;;;9.70;99.90;;;;;;5043765;28;19929;-72
2024/01/03 06:04:58;;;;;;;;;;;9.70;99.90;;;;;;5040317;28;19925;-72
2024/01/03 06:07:27;;;;;;;;;;;9.70;99.90;;;;;;5048477;28;19921;-72
2024/01/03 06:09:55;;;;;;;;;;;9.80;99.90;;;;;;5046424;28;19927;-74
2024/01/03 06:12:23;;;;;;;;;;;9.70;99.90;;;;;;5048018;28;19936;-73
2024/01/03 06:14:51;;;;;;;;;;;9.80;99.90;;;;;;5047732;28;19924;-73
2024/01/03 06:17:19;;;;;;;;;;;9.80;99.90;;;;;;5025775;28;19977;-72
2024/01/03 06:19:47;;;;;;;;;;;9.80;99.90;;;;;;5039328;28;19925;-71
2024/01/03 06:22:16;;;;;;;;;;;9.80;99.90;;;;;;5040124;28;20007;-71
2024/01/03 06:24:45;;;;;;;;;;;9.70;99.90;;;;;;5044062;28;20037;-71
2024/01/03 06:27:13;;;;;;;;;;;9.70;99.90;;;;;;5046991;28;19920;-71
2024/01/03 06:29:42;;;;;;;;;;;9.70;99.90;;;;;;5048016;28;19925;-71
2024/01/03 06:32:14;;;;;;;;;;;9.70;99.90;;;;;;5039674;28;19925;-73
2024/01/03 06:34:42;;;;;;;;;;;9.60;99.90;;;;;;5039487;28;19921;-73
2024/01/03 06:37:10;;;;;;;;;;;9.60;99.90;;;;;;5046052;28;19928;-72
2024/01/03 06:39:38;;;;;;;;;;;9.70;99.90;;;;;;5050467;28;19920;-73
2024/01/03 06:42:07;;;;;;;;;;;9.70;99.90;;;;;;5044500;28;19932;-74
2024/01/03 06:44:35;;;;;;;;;;;9.70;99.90;;;;;;5050219;28;19924;-75
2024/01/03 06:47:03;;;;;;;;;;;9.80;99.90;;;;;;5051829;28;19920;-73
2024/01/03 06:49:31;;;;;;;;;;;9.80;99.90;;;;;;5050595;28;20406;-74
2024/01/03 06:51:58;;;;;;;;;;;9.70;99.90;;;;;;5050880;28;19964;-71
2024/01/03 06:54:26;;;;;;;;;;;9.80;99.90;;;;;;5034756;28;19921;-76
2024/01/03 06:56:55;;;;;;;;;;;9.70;99.90;;;;;;5043452;28;19921;-72
2024/01/03 06:59:24;;;;;;;;;;;9.60;99.90;;;;;;5050384;28;20394;-71
2024/01/03 07:01:52;;;;;;;;;;;9.60;99.90;;;;;;5042822;28;19921;-73
2024/01/03 07:04:21;;;;;;;;;;;9.50;99.90;;;;;;5047007;28;19964;-71
2024/01/03 07:06:53;;;;;;;;;;;9.50;99.90;;;;;;5043683;28;19970;-73
2024/01/03 07:09:21;;;;;;;;;;;9.50;99.90;;;;;;5058347;28;20315;-71
2024/01/03 07:11:48;;;;;;;;;;;9.60;99.90;;;;;;5047393;28;20466;-70
2024/01/03 07:14:16;;;;;;;;;;;9.50;99.90;;;;;;5039679;28;20295;-71
2024/01/03 07:16:46;;;;;;;;;;;9.50;99.90;;;;;;5051109;28;19921;-70
2024/01/03 07:19:17;;;;;;;;;;;9.50;99.90;;;;;;5043382;28;19932;-70
2024/01/03 07:21:45;;;;;;;;;;;9.50;99.90;;;;;;5053104;28;19921;-70
2024/01/03 07:24:13;;;;;;;;;;;9.60;99.90;;;;;;5050052;28;19921;-70
2024/01/03 07:26:40;;;;;;;;;;;9.50;99.90;;;;;;5051227;28;19927;-70
2024/01/03 07:29:08;;;;;;;;;;;9.50;99.90;;;;;;5048833;28;19924;-70
2024/01/03 07:31:36;;;;;;;;;;;9.60;99.90;;;;;;5049369;28;20380;-69
2024/01/03 07:34:05;;;;;;;;;;;9.60;99.90;;;;;;5047994;28;19921;-71
2024/01/03 07:36:33;;;;;;;;;;;9.60;99.90;;;;;;5049617;28;20011;-70
2024/01/03 07:39:03;;;;;;;;;;;9.70;99.90;;;;;;5045917;28;19921;-70
2024/01/03 07:41:31;;;;;;;;;;;9.70;99.90;;;;;;5035596;28;19928;-72
2024/01/03 07:43:59;;;;;;;;;;;9.60;99.90;;;;;;5049717;28;20450;-70
2024/01/03 07:46:27;;;;;;;;;;;9.60;99.90;;;;;;5042796;28;19925;-68
2024/01/03 07:48:55;;;;;;;;;;;9.60;99.90;;;;;;5047257;28;19928;-70
2024/01/03 07:51:24;;;;;;;;;;;9.60;99.90;;;;;;5039524;28;20008;-70
2024/01/03 07:53:52;;;;;;;;;;;9.50;99.90;;;;;;5052973;28;19929;-70
2024/01/03 07:56:20;;;;;;;;;;;9.50;99.90;;;;;;5055468;28;20014;-70
2024/01/03 07:58:48;;;;;;;;;;;9.60;99.90;;;;;;5051368;28;19927;-70
2024/01/03 08:01:15;;;;;;;;;;;9.60;99.90;;;;;;5057030;28;19920;-71
2024/01/03 08:03:43;;;;;;;;;;;9.70;99.90;;;;;;5051149;28;19924;-70
2024/01/03 08:06:13;;;;;;;;;;;9.70;99.90;;;;;;5047280;28;19966;-70
2024/01/03 08:08:42;;;;;;;;;;;9.70;99.90;;;;;;5054642;28;19920;-70
2024/01/03 08:11:11;;;;;;;;;;;9.80;99.90;;;;;;5052040;28;19943;-70
2024/01/03 08:13:39;;;;;;;;;;;9.80;99.90;;;;;;5056505;28;20267;-70
2024/01/03 08:16:07;;;;;;;;;;;9.80;99.90;;;;;;5060359;28;20161;-70
2024/01/03 08:18:35;;;;;;;;;;;9.80;99.90;;;;;;5052955;28;19924;-68
2024/01/03 08:21:03;;;;;;;;;;;9.80;99.90;;;;;;5050772;28;19921;-69
2024/01/03 08:23:31;;;;;;;;;;;9.80;99.90;;;;;;5056411;28;20425;-68
2024/01/03 08:26:01;;;;;;;;;;;9.80;99.90;;;;;;5056055;28;20365;-69
2024/01/03 08:28:29;;;;;;;;;;;9.90;99.90;;;;;;5055430;28;19935;-69
2024/01/03 08:30:56;;;;;;;;;;;9.90;99.90;;;;;;5059581;28;20299;-69
2024/01/03 08:33:24;;;;;;;;;;;9.90;99.90;;;;;;5054881;28;19952;-69
2024/01/03 08:35:52;;;;;;;;;;;10.00;99.90;;;;;;5056960;28;19951;-67
2024/01/03 08:38:20;;;;;;;;;;;10.30;99.90;;;;;;5054312;28;20016;-68
2024/01/03 08:40:48;;;;;;;;;;;10.30;99.90;;;;;;5053871;28;20015;-69
2024/01/03 08:43:17;;;;;;;;;;;10.30;99.90;;;;;;5058532;28;19947;-69
2024/01/03 08:45:45;;;;;;;;;;;10.40;99.90;;;;;;5056759;28;20416;-71
2024/01/03 08:48:13;;;;;;;;;;;10.60;99.90;;;;;;5055060;28;19924;-69
2024/01/03 08:50:43;;;;;;;;;;;10.60;99.90;;;;;;5057405;28;19921;-69
2024/01/03 08:53:11;;;;;;;;;;;10.50;99.90;;;;;;5054265;28;19963;-69
2024/01/03 08:55:39;;;;;;;;;;;10.40;99.90;;;;;;5054470;28;19925;-68
2024/01/03 08:58:07;;;;;;;;;;;10.30;99.90;;;;;;5053266;28;19921;-69
2024/01/03 09:00:36;;;;;;;;;;;10.40;99.90;;;;;;5056118;28;19947;-69
2024/01/03 09:03:04;;;;;;;;;;;10.30;99.90;;;;;;5062005;28;19920;-71
2024/01/03 09:05:32;;;;;;;;;;;10.30;99.90;;;;;;5057572;28;19970;-69
2024/01/03 09:08:00;;;;;;;;;;;10.40;99.90;;;;;;5059699;28;19935;-71
2024/01/03 09:10:32;;;;;;;;;;;10.50;99.90;;;;;;5054830;28;20015;-70
2024/01/03 09:12:59;;;;;;;;;;;10.60;99.90;;;;;;5057736;28;19928;-70
2024/01/03 09:15:27;;;;;;;;;;;10.50;99.90;;;;;;5058202;28;19978;-69
2024/01/03 09:17:56;;;;;;;;;;;10.50;99.90;;;;;;5054540;28;19928;-72
2024/01/03 09:20:24;;;;;;;;;;;10.70;99.90;;;;;;5057066;28;20368;-71
2024/01/03 09:22:52;;;;;;;;;;;10.70;99.90;;;;;;5057136;28;19924;-69
2024/01/03 09:25:20;;;;;;;;;;;10.70;99.90;;;;;;5054255;28;19924;-70
2024/01/03 09:27:48;;;;;;;;;;;10.80;99.90;;;;;;5057238;28;19944;-68
2024/01/03 09:30:16;;;;;;;;;;;10.80;99.90;;;;;;5054889;28;19936;-67
2024/01/03 09:32:44;;;;;;;;;;;10.80;99.90;;;;;;5059078;28;19924;-68
2024/01/03 09:35:14;;;;;;;;;;;11.00;99.90;;;;;;5053556;28;20369;-70
2024/01/03 09:37:42;;;;;;;;;;;11.10;99.90;;;;;;5056719;28;19936;-71
2024/01/03 09:40:11;;;;;;;;;;;11.40;99.90;;;;;;5055243;28;20466;-70
2024/01/03 09:42:39;;;;;;;;;;;11.40;99.90;;;;;;5059752;28;19962;-70
2024/01/03 09:45:08;;;;;;;;;;;11.40;99.90;;;;;;5057617;28;19920;-69
2024/01/03 09:47:36;;;;;;;;;;;11.40;99.90;;;;;;5055981;28;20775;-69
2024/01/03 09:50:04;;;;;;;;;;;11.40;99.90;;;;;;5054492;28;20015;-69
2024/01/03 09:52:34;;;;;;;;;;;11.40;99.90;;;;;;5052107;28;19990;-71
2024/01/03 09:55:02;;;;;;;;;;;11.40;99.90;;;;;;5057743;28;20283;-69
2024/01/03 09:57:30;;;;;;;;;;;11.40;99.90;;;;;;5056519;28;20419;-69
2024/01/03 09:59:58;;;;;;;;;;;11.40;99.90;;;;;;5057814;28;20280;-69
2024/01/03 10:02:27;;;;;;;;;;;11.50;99.90;;;;;;5055993;28;19939;-70
2024/01/03 10:04:55;;;;;;;;;;;11.60;99.90;;;;;;5054011;28;19920;-70
2024/01/03 10:07:31;;;;;;;;;;;12.10;99.90;;;;;;5057187;28;19952;-70
2024/01/03 10:10:01;;;;;;;;;;;12.30;99.90;;;;;;5054267;28;19928;-71
2024/01/03 10:12:32;;;;;;;;;;;12.40;99.90;;;;;;5052853;28;19928;-70
2024/01/03 10:15:13;;;;;;;;;;;12.40;99.90;;;;;;5055240;28;20035;-69
2024/01/03 10:17:42;;;;;;;;;;;12.20;99.90;;;;;;5058075;28;19974;-69
2024/01/03 10:20:23;;;;;;;;;;;12.10;99.90;;;;;;5058773;28;19927;-69
2024/01/03 10:23:03;;;;;;;;;;;12.20;99.90;;;;;;5054647;28;19928;-69
2024/01/03 10:25:32;;;;;;;;;;;12.30;99.90;;;;;;5056633;28;19928;-70
2024/01/03 10:28:00;;;;;;;;;;;12.40;99.90;;;;;;5050102;28;19924;-71
2024/01/03 10:30:28;;;;;;;;;;;12.30;99.90;;;;;;5057353;28;19924;-71
2024/01/03 10:32:57;;;;;;;;;;;12.20;99.90;;;;;;5056277;28;19928;-70
2024/01/03 10:35:28;;;;;;;;;;;12.20;99.90;;;;;;5051869;28;19928;-70
2024/01/03 10:37:57;;;;;;;;;;;12.10;99.90;;;;;;5057996;28;19920;-69
2024/01/03 10:40:25;;;;;;;;;;;12.00;99.90;;;;;;5054404;28;19926;-71
2024/01/03 10:42:54;;;;;;;;;;;11.90;99.90;;;;;;5056519;28;19928;-69
2024/01/03 10:45:22;;;;;;;;;;;11.90;99.90;;;;;;5055581;28;19920;-69
2024/01/03 10:47:51;;;;;;;;;;;11.80;99.90;;;;;;5055633;28;20409;-69
2024/01/03 10:50:19;;;;;;;;;;;11.80;99.90;;;;;;5055292;28;19951;-69
2024/01/03 10:52:46;;;;;;;;;;;11.80;99.90;;;;;;5059605;28;19928;-70
2024/01/03 10:55:18;;;;;;;;;;;11.80;99.90;;;;;;5057171;28;19928;-70
2024/01/03 10:57:51;;;;;;;;;;;11.80;99.90;;;;;;5054858;28;19921;-68
2024/01/03 11:00:24;;;;;;;;;;;11.80;99.90;;;;;;5051997;28;19924;-69
2024/01/03 11:02:59;;;;;;;;;;;11.80;99.90;;;;;;5056209;28;19928;-70
2024/01/03 11:05:33;;;;;;;;;;;11.80;99.90;;;;;;5056122;28;19963;-70
2024/01/03 11:08:05;;;;;;;;;;;11.90;99.90;;;;;;5056607;28;19981;-70
2024/01/03 11:10:46;;;;;;;;;;;11.80;99.90;;;;;;5051216;28;19925;-69
2024/01/03 11:13:25;;;;;;;;;;;11.80;99.90;;;;;;5056176;28;20051;-69
2024/01/03 11:15:54;;;;;;;;;;;11.80;99.90;;;;;;5058015;28;19924;-71
2024/01/03 11:18:49;;;;;;;;;;;11.80;99.90;;;;;;5051640;28;19928;-69
2024/01/03 11:21:35;;;;;;;;;;;11.90;99.90;;;;;;5006901;28;19999;-70
2024/01/03 11:24:04;;;;;;;;;;;12.10;99.90;;;;;;5042086;28;20422;-71
2024/01/03 11:26:47;;;;;;;;;;;12.20;99.90;;;;;;5053527;28;19929;-66
2024/01/03 11:29:29;;;;;;;;;;;12.30;99.90;;;;;;5048510;28;19995;-69
2024/01/03 11:31:59;;;;;;;;;;;12.60;99.90;;;;;;5054647;28;20012;-70
2024/01/03 11:34:36;;;;;;;;;;;12.90;99.90;;;;;;5043907;28;19943;-69
2024/01/03 11:37:04;;;;;;;;;;;12.90;99.90;;;;;;5036796;28;19920;-69
2024/01/03 11:39:32;;;;;;;;;;;12.90;99.90;;;;;;5055595;28;19974;-70
2024/01/03 11:42:00;;;;;;;;;;;12.80;99.90;;;;;;5056732;28;19924;-69
2024/01/03 11:44:28;;;;;;;;;;;12.70;99.90;;;;;;5044093;28;19928;-73
2024/01/03 11:47:00;;;;;;;;;;;12.70;99.90;;;;;;5042130;28;20354;-71
2024/01/03 11:49:28;;;;;;;;;;;12.70;99.90;;;;;;5041495;28;19928;-70
2024/01/03 11:51:57;;;;;;;;;;;12.60;99.90;;;;;;5043593;28;19925;-68
2024/01/03 11:54:25;;;;;;;;;;;12.50;99.90;;;;;;5045030;28;19928;-69
2024/01/03 11:56:53;;;;;;;;;;;12.40;99.90;;;;;;5046021;28;20399;-71
2024/01/03 11:59:21;;;;;;;;;;;12.30;99.90;;;;;;5048856;28;19932;-71
2024/01/03 12:01:56;;;;;;;;;;;12.30;99.90;;;;;;5048879;28;19929;-72
2024/01/03 12:04:26;;;;;;;;;;;12.20;99.90;;;;;;5167697;22;19950;-66
2024/01/03 12:06:56;;;;;;;;;;;12.50;99.90;;;;;;5078896;28;20359;-66
2024/01/03 12:09:28;;;;;;;;;;;12.90;99.90;;;;;;5072800;28;19994;-66
2024/01/03 12:11:56;;;;;;;;;;;13.30;99.90;;;;;;5079907;28;19943;-66
2024/01/03 12:14:24;;;;;;;;;;;13.80;99.90;;;;;;5067989;28;20024;-66
2024/01/03 12:16:53;;;;;;;;;;;14.00;99.90;;;;;;5057297;28;19967;-65
2024/01/03 12:19:24;;;;;;;;;;;13.80;99.90;;;;;;5056309;28;19942;-66
2024/01/03 12:21:57;;;;;;;;;;;13.50;99.90;;;;;;5055901;28;19940;-67
2024/01/03 12:24:37;;;;;;;;;;;13.20;99.90;;;;;;5059475;28;20418;-66
2024/01/03 12:27:05;;;;;;;;;;;13.00;99.90;;;;;;5058957;28;20342;-66
2024/01/03 12:29:34;;;;;;;;;;;13.00;99.90;;;;;;5057715;28;20025;-66
2024/01/03 12:32:11;;;;;;;;;;;12.80;99.90;;;;;;5054410;28;19924;-68
2024/01/03 12:34:39;;;;;;;;;;;12.90;99.90;;;;;;5049698;28;20060;-66
2024/01/03 12:37:08;;;;;;;;;;;13.00;99.90;;;;;;5057828;28;20346;-70
2024/01/03 12:39:40;;;;;;;;;;;12.90;99.90;;;;;;5051056;28;19931;-66
2024/01/03 12:42:09;;;;;;;;;;;12.90;99.90;;;;;;5053824;28;20024;-68
2024/01/03 12:44:38;;;;;;;;;;;12.80;99.90;;;;;;5054275;28;19924;-66
2024/01/03 12:47:08;;;;;;;;;;;12.80;99.90;;;;;;5052715;28;20003;-67
2024/01/03 12:49:37;;;;;;;;;;;12.70;99.90;;;;;;5052069;28;19948;-67
2024/01/03 12:52:09;;;;;;;;;;;12.60;99.90;;;;;;5052168;28;19920;-67
2024/01/03 12:54:38;;;;;;;;;;;12.50;99.90;;;;;;5056833;28;19920;-66
2024/01/03 12:57:06;;;;;;;;;;;12.40;99.90;;;;;;5058547;28;19929;-68
2024/01/03 12:59:35;;;;;;;;;;;12.20;99.90;;;;;;5054622;28;20411;-69
2024/01/03 13:02:06;;;;;;;;;;;12.20;99.90;;;;;;5058207;28;20446;-67
2024/01/03 13:04:34;;;;;;;;;;;12.10;99.90;;;;;;5054123;28;20737;-66
2024/01/03 13:07:01;;;;;;;;;;;12.10;99.90;;;;;;5056955;28;20021;-67
2024/01/03 13:09:31;;;;;;;;;;;12.00;99.90;;;;;;5053086;28;20292;-67
2024/01/03 13:11:58;;;;;;;;;;;11.90;99.90;;;;;;5059372;28;19973;-68
2024/01/03 13:14:26;;;;;;;;;;;11.90;99.90;;;;;;5053944;28;20353;-66
2024/01/03 13:16:54;;;;;;;;;;;11.90;99.90;;;;;;5057926;28;19946;-66
2024/01/03 13:19:22;;;;;;;;;;;11.80;99.90;;;;;;5054071;28;20536;-67
2024/01/03 13:21:51;;;;;;;;;;;11.80;99.90;;;;;;5059901;28;19924;-66
2024/01/03 13:24:19;;;;;;;;;;;11.80;99.90;;;;;;5054037;28;19933;-68
2024/01/03 13:26:49;;;;;;;;;;;11.80;99.90;;;;;;5059923;28;20326;-68
2024/01/03 13:29:16;;;;;;;;;;;11.80;99.90;;;;;;5054343;28;20007;-67
2024/01/03 13:31:44;;;;;;;;;;;11.80;99.90;;;;;;5055695;28;20296;-68
2024/01/03 13:34:14;;;;;;;;;;;11.80;99.90;;;;;;5047553;28;20464;-68
2024/01/03 13:36:42;;;;;;;;;;;11.70;99.90;;;;;;5052169;28;19929;-66
2024/01/03 13:39:11;;;;;;;;;;;11.70;99.90;;;;;;5050145;28;19970;-67
2024/01/03 13:41:38;;;;;;;;;;;11.70;99.90;;;;;;5052305;28;20024;-69
2024/01/03 13:44:08;;;;;;;;;;;11.60;99.90;;;;;;5049708;28;19975;-67
2024/01/03 13:46:35;;;;;;;;;;;11.60;99.90;;;;;;5057423;28;20284;-68
2024/01/03 13:49:03;;;;;;;;;;;11.50;99.90;;;;;;5056864;28;20720;-67
2024/01/03 13:51:31;;;;;;;;;;;11.60;99.90;;;;;;5055041;28;19932;-68
2024/01/03 13:53:59;;;;;;;;;;;11.70;99.90;;;;;;5050248;28;19924;-68
2024/01/03 13:56:27;;;;;;;;;;;11.80;99.90;;;;;;5055582;28;20591;-67
2024/01/03 13:58:55;;;;;;;;;;;11.90;99.90;;;;;;5056477;28;19936;-68
2024/01/03 14:01:24;;;;;;;;;;;11.80;99.90;;;;;;5053373;28;20006;-67
2024/01/03 14:03:52;;;;;;;;;;;11.80;99.90;;;;;;5051766;28;19932;-68
2024/01/03 14:06:21;;;;;;;;;;;11.70;99.90;;;;;;5050911;28;19936;-68
2024/01/03 14:08:51;;;;;;;;;;;11.70;99.90;;;;;;5051711;28;20379;-67
2024/01/03 14:11:20;;;;;;;;;;;11.60;99.90;;;;;;5057497;28;19920;-67
2024/01/03 14:13:49;;;;;;;;;;;11.60;99.90;;;;;;5053614;28;19928;-67
2024/01/03 14:16:17;;;;;;;;;;;11.50;99.90;;;;;;5053509;28;20387;-67
2024/01/03 14:18:46;;;;;;;;;;;11.50;99.90;;;;;;5055623;28;19991;-68
2024/01/03 14:21:14;;;;;;;;;;;11.50;99.90;;;;;;5054925;28;19924;-68
2024/01/03 14:23:41;;;;;;;;;;;11.50;99.90;;;;;;5052866;28;19959;-67
2024/01/03 14:26:10;;;;;;;;;;;11.50;99.90;;;;;;5053114;28;19947;-67
2024/01/03 14:28:38;;;;;;;;;;;11.50;99.90;;;;;;5053959;28;19921;-69
2024/01/03 14:31:07;;;;;;;;;;;11.50;99.90;;;;;;5055011;28;19928;-69
2024/01/03 14:33:35;;;;;;;;;;;11.40;99.90;;;;;;5056921;28;20373;-70